Nickerson Bank (44251) Wave Buoy

6:00pm - Thu 8th Oct 2015 All times are UTC.

  • Sig Wave height 5.2ft
  • Peak Period 10s
  • Wind
    13mph, 18mph gusts
  • Sea Temp 55°f
  • Air Temp 54°f
  • Sea Pressure 1007mb

More Historic Weather Station data

Upgrade to MSW Pro to gain access to the past 30 days of data for over 8000 Wavebouys and Weather Stations around the globe.

Join Pro

Comparision Forecast

View Surf forecast
Thu 10/08 6:00pm 5ft 10s 13 18 mph 1007mb 55f 54f
5:00pm 5ft 10s 11
1007.1mb 55f 53f
4:00pm 5.5ft 10s 9 11 mph 1007.3mb 55f 53f
3:00pm 5.5ft 10s 9
1007.6mb 55f 53f
2:00pm 5ft 11s 7
1007.7mb 55f 53f
1:00pm 5ft 10s 9
1007.7mb 55f 53f
12:00pm 5ft 11s 4
1007.9mb 55f 53f
11:00am 5ft 12s 4 7 mph 1007.9mb 55f 53f
10:00am 5ft 14s 7
1007.7mb 55f 53f
9:00am 5ft 12s 7 9 mph 1007.7mb 55f 53f
8:00am 5ft 10s 9 11 mph 1007.8mb 55f 53f
7:00am 5ft 12s 11 13 mph 1007.9mb 55f 53f
6:00am 5.5ft 11s 13 16 mph 1008.3mb 55f 52f
5:00am 5.5ft 11s 11 13 mph 1008.7mb 55f 52f
4:00am 5.5ft 12s 11 13 mph 1009mb 55f 51f
3:00am 5.5ft 12s 7 9 mph 1009.5mb 55f 51f
2:00am 6ft 12s 7 9 mph 1010.1mb 55f 51f
1:00am 6ft 14s 4 7 mph 1010.5mb 55f 51f
12:00am 6ft 13s 4
1010.6mb 55f 51f
Wed 10/07 11:00pm 7ft 12s 4
1010.6mb 55f 51f
10:00pm 5.5ft 14s 4 7 mph 1010.4mb 55f 51f
9:00pm 6ft 14s 7 9 mph 1010.1mb 55f 51f
8:00pm 6ft 14s 7 9 mph 1009.9mb 55f 51f
7:00pm 6.5ft 14s 9 11 mph 1009.9mb 55f 50f
5:00pm 6ft 13s 13 16 mph 1009.5mb 55f 50f
4:00pm 6ft 13s 13 18 mph 1009.6mb 55f 50f
3:00pm 7ft 17s 13 20 mph 1009.6mb 55f 50f
2:00pm 6ft 13s 16 18 mph 1009.5mb 55f 50f
1:00pm 6.5ft 15s 16 18 mph 1009.5mb 55f 51f
12:00pm 6.5ft 14s 16 20 mph 1009mb 55f 51f
11:00am 7ft 14s 16 20 mph 1008.7mb 55f 51f
10:00am 7ft 14s 13 18 mph 1008.4mb 55f 51f
9:00am 7ft 14s 11 16 mph 1007.9mb 55f 51f
8:00am 5.5ft 14s 13 18 mph 1007.6mb 55f 50f
7:00am 5.5ft 14s 13 18 mph 1007.9mb 55f 50f
6:00am 4.5ft 14s 13 16 mph 1008.4mb 55f 50f
5:00am 5ft 13s 11 13 mph 1009.1mb 55f 51f
4:00am 4.5ft 14s 11 16 mph 1009.3mb 55f 51f
3:00am 4.5ft 14s 11 13 mph 1009.8mb 55f 51f
2:00am 4ft 14s 7 9 mph 1010.6mb 55f 51f
1:00am 4.5ft 14s 7 9 mph 1011.4mb 55f 51f
12:00am 4.5ft 14s 7
1011.8mb 55f 51f
Tue 10/06 11:00pm 4.5ft 15s 4 7 mph 1012mb 55f 51f
10:00pm 4ft 14s 4 7 mph 1012.7mb 55f 51f
9:00pm 4.5ft 14s 4
1012.9mb 55f 52f
8:00pm 5ft 14s 4 7 mph 1013.6mb 55f 52f
7:00pm 4ft 14s 4 7 mph 1014mb 55f 52f
6:00pm 3.5ft 14s 2 4 mph 1014.6mb 55f 52f
5:00pm 3.5ft 14s 2 4 mph 1015.4mb 55f 52f
4:00pm 4.5ft 14s 4
1016.1mb 55f 52f
3:00pm 3.5ft 16s 4
1016.7mb 55f 52f
2:00pm 3.5ft 16s 2
1017.5mb 55f 52f
1:00pm 3.5ft 15s 4
1018.6mb 55f 51f
12:00pm 3.5ft 16s 4 7 mph 1018.7mb 54f 51f
11:00am 3.5ft 16s 4 7 mph 1018.8mb 54f 51f
10:00am 3.5ft 16s 7
1019mb 54f 51f
9:00am 3.5ft 17s 7 9 mph 1019.2mb 55f 51f
8:00am 3.5ft 17s 7
1019.4mb 55f 51f
7:00am 3.5ft 17s 7 9 mph 1019.5mb 55f 51f
6:00am 3.5ft 17s 7 9 mph 1020.1mb 55f 51f
5:00am 3.5ft 9s 9
1020.9mb 55f 51f
4:00am 3.5ft 8s 7 9 mph 1021.5mb 55f 51f
3:00am 3.5ft 18s 9
1021.8mb 55f 51f
2:00am 3ft 18s 9
1022.5mb 55f 51f
1:00am 3ft 9s 9
1022.9mb 55f 51f
12:00am 3ft 9s 7 9 mph 1023.3mb 55f 51f
Mon 10/05 11:00pm 3ft 10s 7 9 mph 1023.2mb 55f 51f
10:00pm 2.5ft 10s 9
1023.4mb 55f 51f
9:00pm 2.5ft 9s 7 9 mph 1023.4mb 55f 51f
8:00pm 2.5ft 12s 9 11 mph 1023.9mb 55f 51f
7:00pm 2.5ft 10s 9 11 mph 1023.8mb 55f 50f
6:00pm 2.5ft 10s 9 11 mph 1024.4mb 55f 50f
5:00pm 3ft 10s 7 9 mph 1024.8mb 55f 48f
4:00pm 3ft 10s 9
1025.4mb 55f 47f
3:00pm 3ft 8s 9
1026.1mb 55f 46f
2:00pm 3ft 8s 7 9 mph 1026.1mb 55f 44f
1:00pm 3ft 8s 4 7 mph 1026.6mb 54f 44f
12:00pm 3.5ft 9s 4 7 mph 1026.6mb 54f 46f
11:00am 3.5ft 9s 2 4 mph 1026.7mb 54f 47f
10:00am 3.5ft 9s 2 7 mph 1026.6mb 54f 44f
9:00am 3.5ft 13s 2 4 mph 1026.5mb 54f 44f
8:00am 3ft 14s 4 7 mph 1026.4mb 54f 44f
7:00am 3.5ft 10s 4 9 mph 1026.3mb 54f 46f
6:00am 3.5ft 10s 4 7 mph 1026.2mb 54f 46f
5:00am 3.5ft 10s 9
1026.4mb 54f 45f
4:00am 3.5ft 10s 11 13 mph 1026.4mb 54f 46f
3:00am 4ft 10s 13 16 mph 1026.5mb 54f 46f
2:00am 4ft 10s 13 16 mph 1027.3mb 54f 46f
1:00am 4.5ft 10s 13
1027.1mb 54f 46f
12:00am 4.5ft 12s 16 20 mph 1026.9mb 54f 47f
Sun 10/04 11:00pm 5ft 10s 20
1026.7mb 54f 47f
10:00pm 5ft 11s 20 22 mph 1026.8mb 54f 47f
9:00pm 5.5ft 9s 20 25 mph 1026.2mb 54f 47f
8:00pm 5ft 6s 22 27 mph 1025.8mb 54f 47f